createdAt,value
2023-01-17T00:02:25.193Z,3.83
2023-01-17T00:05:10.903Z,3.87
2023-01-17T00:07:57.202Z,3.95
2023-01-17T00:10:26.389Z,3.81
2023-01-17T00:12:56.877Z,3.77
2023-01-17T00:15:25.445Z,3.69
2023-01-17T00:17:53.984Z,3.65
2023-01-17T00:20:46.198Z,3.67
2023-01-17T00:23:37.622Z,3.69
2023-01-17T00:26:11.190Z,3.69
2023-01-17T00:28:40.167Z,3.73
2023-01-17T00:31:09.403Z,3.80
2023-01-17T00:33:36.635Z,3.86
2023-01-17T00:36:05.138Z,3.85
2023-01-17T00:38:35.456Z,3.89
2023-01-17T00:41:13.908Z,3.85
2023-01-17T00:43:59.673Z,3.87
2023-01-17T00:46:45.550Z,3.94
2023-01-17T00:49:31.333Z,3.96
2023-01-17T00:52:17.101Z,3.97
2023-01-17T00:55:02.606Z,3.99
2023-01-17T00:57:48.205Z,4.08
2023-01-17T01:00:34.574Z,4.10
2023-01-17T01:03:20.111Z,4.17
2023-01-17T01:06:05.606Z,4.26
2023-01-17T01:08:51.463Z,4.23
2023-01-17T01:11:39.515Z,4.15
2023-01-17T01:14:27.088Z,4.18
2023-01-17T01:17:12.546Z,4.22
2023-01-17T01:19:57.890Z,4.19
2023-01-17T01:22:43.513Z,4.24
2023-01-17T01:25:28.978Z,4.25
2023-01-17T01:28:30.368Z,4.26
2023-01-17T01:31:19.088Z,4.21
2023-01-17T01:33:46.071Z,4.14
2023-01-17T01:36:13.070Z,4.11
2023-01-17T01:38:40.209Z,4.21
2023-01-17T01:41:07.335Z,4.14
2023-01-17T01:43:48.937Z,4.31
2023-01-17T01:46:21.618Z,4.17
2023-01-17T01:49:03.487Z,4.13
2023-01-17T01:51:44.939Z,4.18
2023-01-17T01:54:23.491Z,4.21
2023-01-17T01:56:52.556Z,4.24
2023-01-17T01:59:21.255Z,4.30
2023-01-17T02:01:51.572Z,4.34
2023-01-17T02:04:20.839Z,4.42
2023-01-17T02:06:51.836Z,4.45
2023-01-17T02:09:20.242Z,4.48
2023-01-17T02:11:49.048Z,4.38
2023-01-17T02:14:17.771Z,4.36
2023-01-17T02:17:10.439Z,4.40
2023-01-17T02:20:09.216Z,4.44
2023-01-17T02:23:13.450Z,4.44
2023-01-17T02:26:17.457Z,4.45
2023-01-17T02:29:40.001Z,4.53
2023-01-17T02:32:28.468Z,4.52
2023-01-17T02:35:05.740Z,4.51
2023-01-17T02:38:06.328Z,4.61
2023-01-17T02:40:43.350Z,4.77
2023-01-17T02:43:15.047Z,4.65
2023-01-17T02:45:42.161Z,4.54
2023-01-17T02:48:12.368Z,4.53
2023-01-17T02:51:41.046Z,4.54
2023-01-17T02:55:09.252Z,4.61
2023-01-17T02:58:13.369Z,4.62
2023-01-17T03:01:03.038Z,4.59
2023-01-17T03:03:48.007Z,4.52
2023-01-17T03:06:30.418Z,4.35
2023-01-17T03:08:57.365Z,4.30
2023-01-17T03:11:24.421Z,4.27
2023-01-17T03:13:56.882Z,4.19
2023-01-17T03:16:25.854Z,4.16
2023-01-17T03:18:54.004Z,4.30
2023-01-17T03:21:22.283Z,4.36
2023-01-17T03:23:49.436Z,4.44
2023-01-17T03:26:16.995Z,4.46
2023-01-17T03:28:43.894Z,4.42
2023-01-17T03:31:14.758Z,4.46
2023-01-17T03:33:41.830Z,4.45
2023-01-17T03:36:09.263Z,4.55
2023-01-17T03:38:37.486Z,4.56
2023-01-17T03:41:05.106Z,4.47
2023-01-17T03:43:32.060Z,4.51
2023-01-17T03:46:04.177Z,4.60
2023-01-17T03:48:31.487Z,4.63
2023-01-17T03:50:58.413Z,4.63
2023-01-17T03:53:25.668Z,4.69
2023-01-17T03:55:52.585Z,4.78
2023-01-17T03:58:20.258Z,4.81
2023-01-17T04:00:47.169Z,4.74
2023-01-17T04:03:14.133Z,4.64
2023-01-17T04:05:41.079Z,4.60
2023-01-17T04:08:08.064Z,4.63
2023-01-17T04:10:34.968Z,4.63
2023-01-17T04:13:01.889Z,4.65
2023-01-17T04:15:29.050Z,4.65
2023-01-17T04:17:56.363Z,4.67
2023-01-17T04:20:34.773Z,4.75
2023-01-17T04:23:02.007Z,4.79
2023-01-17T04:25:31.035Z,4.76
2023-01-17T04:27:59.697Z,4.79
2023-01-17T04:30:27.929Z,4.87
2023-01-17T04:32:55.193Z,4.93
2023-01-17T04:35:22.439Z,4.99
2023-01-17T04:37:49.436Z,4.98
2023-01-17T04:40:16.800Z,4.84
2023-01-17T04:42:47.315Z,4.86
2023-01-17T04:45:15.393Z,4.89
2023-01-17T04:47:44.648Z,4.94
2023-01-17T04:50:12.283Z,4.98
2023-01-17T04:52:39.246Z,5.09
2023-01-17T04:55:07.166Z,5.05
2023-01-17T04:57:34.128Z,5.01
2023-01-17T05:00:01.101Z,5.03
2023-01-17T05:02:28.225Z,5.01
2023-01-17T05:04:55.120Z,5.12
2023-01-17T05:07:22.109Z,5.09
2023-01-17T05:09:49.121Z,5.12
2023-01-17T05:12:16.108Z,5.13
2023-01-17T05:14:43.091Z,5.09
2023-01-17T05:17:11.392Z,5.08
2023-01-17T05:19:38.398Z,4.99
2023-01-17T05:22:15.005Z,4.98
2023-01-17T05:24:46.487Z,4.97
2023-01-17T05:27:13.812Z,4.88
2023-01-17T05:29:41.011Z,4.87
2023-01-17T05:32:07.991Z,5.08
2023-01-17T05:34:35.258Z,5.13
2023-01-17T05:37:02.353Z,5.08
2023-01-17T05:39:31.116Z,5.13
2023-01-17T05:41:59.611Z,5.49
2023-01-17T05:44:27.969Z,5.30
2023-01-17T05:46:55.354Z,5.31
2023-01-17T05:49:22.271Z,5.20
2023-01-17T05:51:49.317Z,5.14
2023-01-17T05:54:16.447Z,5.17
2023-01-17T05:56:44.075Z,5.31
2023-01-17T05:59:13.938Z,5.39
2023-01-17T06:01:41.195Z,5.43
2023-01-17T06:04:08.508Z,5.31
2023-01-17T06:06:35.538Z,5.25
2023-01-17T06:09:03.091Z,5.21
2023-01-17T06:11:30.718Z,5.20
2023-01-17T06:13:57.609Z,5.16
2023-01-17T06:16:24.521Z,5.21
2023-01-17T06:18:52.307Z,5.24
2023-01-17T06:21:19.997Z,5.31
2023-01-17T06:23:47.060Z,5.55
2023-01-17T06:26:14.156Z,5.64
2023-01-17T06:28:41.260Z,6.06
2023-01-17T06:31:09.248Z,6.15
2023-01-17T06:33:36.355Z,5.90
2023-01-17T06:36:04.083Z,5.77
2023-01-17T06:38:31.139Z,5.88
2023-01-17T06:41:00.524Z,5.96
2023-01-17T06:43:28.939Z,6.12
2023-01-17T06:45:56.029Z,5.94
2023-01-17T06:48:23.046Z,6.04
2023-01-17T06:50:50.103Z,6.10
2023-01-17T06:53:17.392Z,6.31
2023-01-17T06:55:44.728Z,6.48
2023-01-17T06:58:11.903Z,6.52
2023-01-17T07:00:40.720Z,6.65
2023-01-17T07:03:18.259Z,6.84
2023-01-17T07:05:45.254Z,6.93
2023-01-17T07:08:12.449Z,6.97
2023-01-17T07:10:39.658Z,7.06
2023-01-17T07:13:06.681Z,7.19
2023-01-17T07:15:34.512Z,7.46
2023-01-17T07:18:02.567Z,7.76
2023-01-17T07:20:30.038Z,8.06
2023-01-17T07:22:57.180Z,8.35
2023-01-17T07:25:25.560Z,8.57
2023-01-17T07:27:55.591Z,8.73
2023-01-17T07:30:22.747Z,8.92
2023-01-17T07:32:54.453Z,9.12
2023-01-17T07:35:22.247Z,9.25
2023-01-17T07:37:50.166Z,9.43
2023-01-17T07:40:18.371Z,9.53
2023-01-17T07:42:45.627Z,9.64
2023-01-17T07:45:14.793Z,9.76
2023-01-17T07:47:42.007Z,9.86
2023-01-17T07:50:10.215Z,9.95
2023-01-17T07:52:37.225Z,10.08
2023-01-17T07:55:05.241Z,10.15
2023-01-17T07:57:32.925Z,10.21
2023-01-17T08:00:00.063Z,10.25
2023-01-17T08:02:27.134Z,10.31
2023-01-17T08:04:54.165Z,10.41
2023-01-17T08:07:21.261Z,10.49
2023-01-17T08:09:50.276Z,10.55
2023-01-17T08:12:17.734Z,10.59
2023-01-17T08:14:45.369Z,10.65
2023-01-17T08:17:17.117Z,10.68
2023-01-17T08:19:45.113Z,10.73
2023-01-17T08:22:15.003Z,10.74
2023-01-17T08:24:42.361Z,10.75
2023-01-17T08:27:09.454Z,10.82
2023-01-17T08:29:36.804Z,10.85
2023-01-17T08:32:03.902Z,10.95
2023-01-17T08:34:33.613Z,11.07
2023-01-17T08:37:00.686Z,11.14
2023-01-17T08:39:27.839Z,11.19
2023-01-17T08:41:54.834Z,11.23
2023-01-17T08:44:21.946Z,11.31
2023-01-17T08:46:49.602Z,11.38
2023-01-17T08:49:16.565Z,11.45
2023-01-17T08:51:43.539Z,11.49
2023-01-17T08:54:13.002Z,11.56
2023-01-17T08:56:39.980Z,11.57
2023-01-17T08:59:06.941Z,11.61
2023-01-17T09:01:40.987Z,11.61
2023-01-17T09:04:09.485Z,11.64
2023-01-17T09:06:38.650Z,11.63
2023-01-17T09:09:07.349Z,11.65
2023-01-17T09:11:34.872Z,11.73
2023-01-17T09:14:02.089Z,11.80
2023-01-17T09:16:29.717Z,11.85
2023-01-17T09:18:57.669Z,11.85
2023-01-17T09:21:26.617Z,11.88
2023-01-17T09:23:55.304Z,11.88
2023-01-17T09:26:27.833Z,11.93
2023-01-17T09:28:55.003Z,11.95
2023-01-17T09:31:23.495Z,11.97
2023-01-17T09:33:52.200Z,12.04
2023-01-17T09:36:20.059Z,12.15
2023-01-17T09:38:47.026Z,12.14
2023-01-17T09:41:27.867Z,12.13
2023-01-17T09:44:21.947Z,12.14
2023-01-17T09:46:50.293Z,12.15
2023-01-17T09:49:43.550Z,12.22
2023-01-17T09:52:14.824Z,12.29
2023-01-17T09:54:43.590Z,12.35
2023-01-17T09:57:55.678Z,12.44
2023-01-17T10:00:59.672Z,12.45
2023-01-17T10:03:43.954Z,12.48
2023-01-17T10:06:42.244Z,12.53
2023-01-17T10:09:46.279Z,12.55
2023-01-17T10:12:51.160Z,12.56
2023-01-17T10:15:54.539Z,12.61
2023-01-17T10:19:07.973Z,12.63
2023-01-17T10:21:59.251Z,12.70
2023-01-17T10:25:00.308Z,12.68
2023-01-17T10:27:37.655Z,12.73
2023-01-17T10:30:26.807Z,12.77
2023-01-17T10:32:56.667Z,12.74
2023-01-17T10:35:28.636Z,12.78
2023-01-17T10:37:58.412Z,12.80
2023-01-17T10:40:51.405Z,12.86
2023-01-17T10:43:28.422Z,12.87
2023-01-17T10:45:57.237Z,12.93
2023-01-17T10:48:36.832Z,12.94
2023-01-17T10:51:51.631Z,12.98
2023-01-17T10:54:46.698Z,13.04
2023-01-17T10:57:17.723Z,13.03
2023-01-17T10:59:45.570Z,12.93
2023-01-17T11:02:29.422Z,12.92
2023-01-17T11:04:58.241Z,12.79
2023-01-17T11:07:27.403Z,12.69
2023-01-17T11:09:56.724Z,12.65
2023-01-17T11:12:47.682Z,12.62
2023-01-17T11:15:23.506Z,12.63
2023-01-17T11:18:00.546Z,12.66
2023-01-17T11:20:43.133Z,12.70
2023-01-17T11:23:41.359Z,12.75
2023-01-17T11:26:13.124Z,12.78
2023-01-17T11:28:41.381Z,12.75
2023-01-17T11:31:28.749Z,12.75
2023-01-17T11:34:16.543Z,12.77
2023-01-17T11:36:43.841Z,12.81
2023-01-17T11:39:27.753Z,12.88
2023-01-17T11:41:54.989Z,12.90
2023-01-17T11:44:34.028Z,12.90
2023-01-17T11:47:27.277Z,12.90
2023-01-17T11:49:55.512Z,12.89
2023-01-17T11:52:26.334Z,12.86
2023-01-17T11:54:55.427Z,12.86
2023-01-17T11:57:33.419Z,12.84
2023-01-17T12:00:39.325Z,12.85
2023-01-17T12:03:46.595Z,12.84
2023-01-17T12:06:51.507Z,12.86
2023-01-17T12:09:52.673Z,12.84
2023-01-17T12:13:07.698Z,12.78
2023-01-17T12:16:23.501Z,12.79
2023-01-17T12:18:54.477Z,12.86
2023-01-17T12:21:35.552Z,12.96
2023-01-17T12:24:21.979Z,12.98
2023-01-17T12:27:17.053Z,12.97
2023-01-17T12:29:50.042Z,12.97
2023-01-17T12:33:16.311Z,12.99
2023-01-17T12:35:52.967Z,13.06
2023-01-17T12:38:35.832Z,13.10
2023-01-17T12:41:24.641Z,13.20
2023-01-17T12:43:55.347Z,13.28
2023-01-17T12:46:30.683Z,13.33
2023-01-17T12:49:44.541Z,13.45
2023-01-17T12:52:25.827Z,13.43
2023-01-17T12:54:59.349Z,13.52
2023-01-17T12:57:43.156Z,13.59
2023-01-17T13:00:23.119Z,13.70
2023-01-17T13:03:13.546Z,13.68
2023-01-17T13:05:46.112Z,13.61
2023-01-17T13:08:25.203Z,13.56
2023-01-17T13:11:21.276Z,13.53
2023-01-17T13:13:51.487Z,13.51
2023-01-17T13:16:25.296Z,13.52
2023-01-17T13:18:52.637Z,13.46
2023-01-17T13:21:34.054Z,13.61
2023-01-17T13:24:22.357Z,13.58
2023-01-17T13:27:23.877Z,13.40
2023-01-17T13:30:15.519Z,13.37
2023-01-17T13:33:07.210Z,13.41
2023-01-17T13:35:54.816Z,13.45
2023-01-17T13:38:56.061Z,13.45
2023-01-17T13:41:38.192Z,13.57
2023-01-17T13:44:24.609Z,13.57
2023-01-17T13:47:41.515Z,13.72
2023-01-17T13:50:51.284Z,13.79
2023-01-17T13:53:56.577Z,13.81
2023-01-17T13:56:31.680Z,13.79
2023-01-17T13:59:05.107Z,13.81
2023-01-17T14:01:50.239Z,13.89
2023-01-17T14:04:17.360Z,13.76
2023-01-17T14:06:46.829Z,13.82
2023-01-17T14:09:20.608Z,13.70
2023-01-17T14:12:30.657Z,13.70
2023-01-17T14:15:00.913Z,13.67
2023-01-17T14:17:36.950Z,13.68
2023-01-17T14:20:47.454Z,13.72
2023-01-17T14:23:26.186Z,13.86
2023-01-17T14:25:53.958Z,14.14
2023-01-17T14:28:32.064Z,13.93
2023-01-17T14:31:01.162Z,13.73
2023-01-17T14:33:36.673Z,13.59
2023-01-17T14:36:13.641Z,13.66
2023-01-17T14:38:44.820Z,13.60
2023-01-17T14:41:15.349Z,13.61
2023-01-17T14:43:43.628Z,13.73
2023-01-17T14:46:32.342Z,13.85
2023-01-17T14:49:21.065Z,13.70
2023-01-17T14:52:06.564Z,13.63
2023-01-17T14:54:33.573Z,13.56
2023-01-17T14:57:28.145Z,13.52
2023-01-17T15:00:30.800Z,13.44
2023-01-17T15:02:59.585Z,13.68
2023-01-17T15:05:29.759Z,13.55
2023-01-17T15:07:58.280Z,13.48
2023-01-17T15:10:31.537Z,13.47
2023-01-17T15:13:07.778Z,13.45
2023-01-17T15:15:40.088Z,13.42
2023-01-17T15:18:29.593Z,13.32
2023-01-17T15:21:05.035Z,13.29
2023-01-17T15:23:44.172Z,13.13
2023-01-17T15:26:14.259Z,13.07
2023-01-17T15:28:42.160Z,13.04
2023-01-17T15:31:15.604Z,13.20
2023-01-17T15:33:48.128Z,13.16
2023-01-17T15:36:34.380Z,13.17
2023-01-17T15:39:04.936Z,13.20
2023-01-17T15:41:35.272Z,13.08
2023-01-17T15:44:02.824Z,13.03
2023-01-17T15:46:33.188Z,13.04
2023-01-17T15:49:23.000Z,13.04
2023-01-17T15:52:10.283Z,13.09
2023-01-17T15:55:07.473Z,12.98
2023-01-17T15:57:37.306Z,12.78
2023-01-17T16:00:32.849Z,12.67
2023-01-17T16:03:00.001Z,12.63
2023-01-17T16:05:35.485Z,12.58
2023-01-17T16:08:33.205Z,12.53
2023-01-17T16:11:02.793Z,12.53
2023-01-17T16:13:31.621Z,12.47
2023-01-17T16:16:25.922Z,12.45
2023-01-17T16:18:59.544Z,12.39
2023-01-17T16:21:29.126Z,12.37
2023-01-17T16:23:56.645Z,12.30
2023-01-17T16:26:24.219Z,12.19
2023-01-17T16:29:01.193Z,12.12
2023-01-17T16:31:28.125Z,12.06
2023-01-17T16:34:02.030Z,12.02
2023-01-17T16:36:29.008Z,11.97
2023-01-17T16:38:55.962Z,11.89
2023-01-17T16:41:23.239Z,11.84
2023-01-17T16:44:05.475Z,11.83
2023-01-17T16:46:32.659Z,11.77
2023-01-17T16:49:00.426Z,11.79
2023-01-17T16:51:27.500Z,11.71
2023-01-17T16:53:54.510Z,11.70
2023-01-17T16:56:21.827Z,11.77
2023-01-17T16:58:48.829Z,11.72
2023-01-17T17:01:17.497Z,11.72
2023-01-17T17:03:45.049Z,11.79
2023-01-17T17:06:12.852Z,11.76
2023-01-17T17:08:39.959Z,11.75
2023-01-17T17:11:23.260Z,11.75
2023-01-17T17:13:51.612Z,11.81
2023-01-17T17:16:33.026Z,11.83
2023-01-17T17:19:10.456Z,11.84
2023-01-17T17:21:40.162Z,11.79
2023-01-17T17:24:07.401Z,11.93
2023-01-17T17:26:36.552Z,11.88
2023-01-17T17:29:04.943Z,11.71
2023-01-17T17:31:32.030Z,11.67
2023-01-17T17:34:00.488Z,11.73
2023-01-17T17:36:27.753Z,11.91
2023-01-17T17:38:55.954Z,11.87
2023-01-17T17:41:26.500Z,11.69
2023-01-17T17:43:54.056Z,11.48
2023-01-17T17:46:23.382Z,11.40
2023-01-17T17:48:50.405Z,11.46
2023-01-17T17:51:34.778Z,11.35
2023-01-17T17:54:09.814Z,11.52
2023-01-17T17:56:37.779Z,11.46
2023-01-17T17:59:07.276Z,11.72
2023-01-17T18:01:50.465Z,11.43
2023-01-17T18:04:18.031Z,11.18
2023-01-17T18:06:45.152Z,11.11
2023-01-17T18:09:13.451Z,10.99
2023-01-17T18:11:41.982Z,10.92
2023-01-17T18:14:12.611Z,11.15
2023-01-17T18:16:42.717Z,10.76
2023-01-17T18:19:24.418Z,10.83
2023-01-17T18:21:52.331Z,10.90
2023-01-17T18:24:22.078Z,10.60
2023-01-17T18:26:59.340Z,10.43
2023-01-17T18:29:27.458Z,10.46
2023-01-17T18:31:55.078Z,10.61
2023-01-17T18:34:24.936Z,10.57
2023-01-17T18:36:52.590Z,10.07
2023-01-17T18:39:24.777Z,10.04
2023-01-17T18:41:52.304Z,9.98
2023-01-17T18:44:22.741Z,10.00
2023-01-17T18:46:50.620Z,10.00
2023-01-17T18:49:19.437Z,9.82
2023-01-17T18:51:50.907Z,9.91
2023-01-17T18:54:19.740Z,10.02
2023-01-17T18:56:47.052Z,10.25
2023-01-17T18:59:16.174Z,10.18
2023-01-17T19:01:43.875Z,10.05
2023-01-17T19:04:12.796Z,9.97
2023-01-17T19:06:42.806Z,10.00
2023-01-17T19:09:11.739Z,10.12
2023-01-17T19:11:39.089Z,10.55
2023-01-17T19:14:07.303Z,10.68
2023-01-17T19:16:39.224Z,10.53
2023-01-17T19:19:12.363Z,10.50
2023-01-17T19:21:50.710Z,10.36
2023-01-17T19:24:17.777Z,10.46
2023-01-17T19:26:45.669Z,10.43
2023-01-17T19:29:12.575Z,10.63
2023-01-17T19:31:43.134Z,10.81
2023-01-17T19:34:10.731Z,10.92
2023-01-17T19:36:38.663Z,10.81
2023-01-17T19:39:07.418Z,10.91
2023-01-17T19:41:36.708Z,11.10
2023-01-17T19:44:08.269Z,11.21
2023-01-17T19:46:35.964Z,11.21
2023-01-17T19:49:04.091Z,11.31
2023-01-17T19:51:31.103Z,11.43
2023-01-17T19:54:01.958Z,11.45
2023-01-17T19:56:29.802Z,11.47
2023-01-17T19:59:01.869Z,11.49
2023-01-17T20:01:32.055Z,11.51
2023-01-17T20:04:00.314Z,11.53
2023-01-17T20:06:30.888Z,11.56
2023-01-17T20:08:57.988Z,11.63
2023-01-17T20:11:26.184Z,11.69
2023-01-17T20:13:55.091Z,11.72
2023-01-17T20:16:23.069Z,11.74
2023-01-17T20:18:50.255Z,11.73
2023-01-17T20:21:23.120Z,11.76
2023-01-17T20:23:52.030Z,11.77
2023-01-17T20:26:24.313Z,11.77
2023-01-17T20:29:10.839Z,11.79
2023-01-17T20:31:38.928Z,11.81
2023-01-17T20:34:07.226Z,11.84
2023-01-17T20:36:34.601Z,11.84
2023-01-17T20:39:04.309Z,11.93
2023-01-17T20:41:33.624Z,11.88
2023-01-17T20:44:01.987Z,11.88
2023-01-17T20:46:32.275Z,11.87
2023-01-17T20:49:01.256Z,11.93
2023-01-17T20:51:29.876Z,11.93
2023-01-17T20:53:59.347Z,11.96
2023-01-17T20:56:27.302Z,11.99
2023-01-17T20:58:54.962Z,11.99
2023-01-17T21:01:23.211Z,12.00
2023-01-17T21:03:53.265Z,12.02
2023-01-17T21:06:21.734Z,11.98
2023-01-17T21:08:48.961Z,11.95
2023-01-17T21:11:19.130Z,11.94
2023-01-17T21:13:48.840Z,11.95
2023-01-17T21:16:16.993Z,11.93
2023-01-17T21:18:48.075Z,11.94
2023-01-17T21:21:24.349Z,11.94
2023-01-17T21:23:53.574Z,12.00
2023-01-17T21:26:22.318Z,12.02
2023-01-17T21:28:50.978Z,12.06
2023-01-17T21:31:27.604Z,12.06
2023-01-17T21:34:00.015Z,12.08
2023-01-17T21:36:29.754Z,12.09
2023-01-17T21:38:58.864Z,12.10
2023-01-17T21:41:28.777Z,12.10
2023-01-17T21:43:57.884Z,12.06
2023-01-17T21:46:25.846Z,12.05
2023-01-17T21:48:53.158Z,12.00
2023-01-17T21:51:21.953Z,11.96
2023-01-17T21:53:49.140Z,11.93
2023-01-17T21:56:35.034Z,11.92
2023-01-17T21:59:01.969Z,11.86
2023-01-17T22:01:32.397Z,11.83
2023-01-17T22:04:01.692Z,11.79
2023-01-17T22:06:34.532Z,11.78
2023-01-17T22:09:03.510Z,11.79
2023-01-17T22:11:30.673Z,11.77
2023-01-17T22:13:59.238Z,11.74
2023-01-17T22:16:26.469Z,11.75
2023-01-17T22:18:53.391Z,11.74
2023-01-17T22:21:23.188Z,11.75
2023-01-17T22:23:52.924Z,11.76
2023-01-17T22:26:21.381Z,11.68
2023-01-17T22:28:48.651Z,11.77
2023-01-17T22:31:18.045Z,11.78
2023-01-17T22:33:46.379Z,11.76
2023-01-17T22:36:14.635Z,11.77
2023-01-17T22:38:43.426Z,11.76
2023-01-17T22:41:13.248Z,11.78
2023-01-17T22:43:42.432Z,11.77
2023-01-17T22:46:12.180Z,11.81
2023-01-17T22:48:40.034Z,11.81
2023-01-17T22:51:20.011Z,11.83
2023-01-17T22:53:50.027Z,11.87
2023-01-17T22:56:22.780Z,11.90
2023-01-17T22:58:50.484Z,11.94
2023-01-17T23:01:23.646Z,11.92
2023-01-17T23:03:52.955Z,11.86
2023-01-17T23:06:25.815Z,11.86
2023-01-17T23:08:55.382Z,11.87
2023-01-17T23:11:43.568Z,11.82
2023-01-17T23:14:30.890Z,11.74
2023-01-17T23:17:21.590Z,11.70
2023-01-17T23:19:51.343Z,11.66
2023-01-17T23:22:23.768Z,11.65
2023-01-17T23:25:12.116Z,11.58
2023-01-17T23:28:05.175Z,11.55
2023-01-17T23:30:42.590Z,11.56
2023-01-17T23:33:11.778Z,11.53
2023-01-17T23:35:43.588Z,11.55
2023-01-17T23:38:28.718Z,11.53
2023-01-17T23:41:23.017Z,11.51
2023-01-17T23:43:51.025Z,11.47
2023-01-17T23:46:18.120Z,11.46
2023-01-17T23:48:45.121Z,11.44
2023-01-17T23:51:12.018Z,11.45
2023-01-17T23:53:39.656Z,11.44
2023-01-17T23:56:26.925Z,11.40
2023-01-17T23:58:53.879Z,11.37
